sensor_id;sensor_type;location;lat;lon;timestamp;pressure;altitude;pressure_sealevel;temperature;humidity
72640;BME280;60683;51.730;8.762;2023-09-18T00:00:31;99710.38;;;19.97;83.90
72640;BME280;60683;51.730;8.762;2023-09-18T00:03:19;99692.09;;;19.98;83.64
72640;BME280;60683;51.730;8.762;2023-09-18T00:05:46;99695.13;;;19.96;83.52
72640;BME280;60683;51.730;8.762;2023-09-18T00:08:14;99692.28;;;20.01;83.31
72640;BME280;60683;51.730;8.762;2023-09-18T00:10:42;99687.44;;;19.98;83.53
72640;BME280;60683;51.730;8.762;2023-09-18T00:13:13;99679.25;;;19.98;83.42
72640;BME280;60683;51.730;8.762;2023-09-18T00:15:40;99671.38;;;19.97;83.47
72640;BME280;60683;51.730;8.762;2023-09-18T00:18:08;99666.03;;;19.92;83.61
72640;BME280;60683;51.730;8.762;2023-09-18T00:20:35;99658.16;;;19.90;83.61
72640;BME280;60683;51.730;8.762;2023-09-18T00:23:02;99648.47;;;19.84;84.01
72640;BME280;60683;51.730;8.762;2023-09-18T00:25:29;99638.97;;;19.81;84.26
72640;BME280;60683;51.730;8.762;2023-09-18T00:27:59;99628.97;;;19.77;84.35
72640;BME280;60683;51.730;8.762;2023-09-18T00:30:25;99636.53;;;19.80;84.28
72640;BME280;60683;51.730;8.762;2023-09-18T00:32:53;99635.38;;;19.72;84.71
72640;BME280;60683;51.730;8.762;2023-09-18T00:35:20;99629.13;;;19.72;84.66
72640;BME280;60683;51.730;8.762;2023-09-18T00:37:48;99622.75;;;19.63;85.25
72640;BME280;60683;51.730;8.762;2023-09-18T00:40:15;99614.59;;;19.63;85.60
72640;BME280;60683;51.730;8.762;2023-09-18T00:42:42;99612.34;;;19.65;85.68
72640;BME280;60683;51.730;8.762;2023-09-18T00:45:10;99608.41;;;19.71;85.21
72640;BME280;60683;51.730;8.762;2023-09-18T00:47:38;99599.72;;;19.69;85.28
72640;BME280;60683;51.730;8.762;2023-09-18T00:50:07;99604.69;;;19.67;85.49
72640;BME280;60683;51.730;8.762;2023-09-18T00:52:35;99598.53;;;19.61;85.64
72640;BME280;60683;51.730;8.762;2023-09-18T00:55:04;99594.69;;;19.62;85.55
72640;BME280;60683;51.730;8.762;2023-09-18T00:57:32;99583.59;;;19.59;85.49
72640;BME280;60683;51.730;8.762;2023-09-18T00:59:59;99591.84;;;19.67;84.96
72640;BME280;60683;51.730;8.762;2023-09-18T01:02:28;99589.50;;;19.74;84.50
72640;BME280;60683;51.730;8.762;2023-09-18T01:04:55;99584.53;;;19.76;84.39
72640;BME280;60683;51.730;8.762;2023-09-18T01:07:22;99579.47;;;19.83;83.90
72640;BME280;60683;51.730;8.762;2023-09-18T01:09:49;99580.97;;;19.90;83.72
72640;BME280;60683;51.730;8.762;2023-09-18T01:12:18;99575.81;;;19.88;83.77
72640;BME280;60683;51.730;8.762;2023-09-18T01:14:57;99572.84;;;19.98;82.94
72640;BME280;60683;51.730;8.762;2023-09-18T01:17:34;99566.59;;;19.98;82.95
72640;BME280;60683;51.730;8.762;2023-09-18T01:20:03;99564.84;;;20.02;82.40
72640;BME280;60683;51.730;8.762;2023-09-18T01:22:33;99558.09;;;19.99;82.60
72640;BME280;60683;51.730;8.762;2023-09-18T01:24:59;99565.53;;;20.07;81.84
72640;BME280;60683;51.730;8.762;2023-09-18T01:27:26;99559.09;;;20.03;81.91
72640;BME280;60683;51.730;8.762;2023-09-18T01:29:53;99560.19;;;20.02;82.03
72640;BME280;60683;51.730;8.762;2023-09-18T01:32:24;99548.59;;;19.97;82.25
72640;BME280;60683;51.730;8.762;2023-09-18T01:34:54;99534.47;;;19.95;82.14
72640;BME280;60683;51.730;8.762;2023-09-18T01:37:24;99533.97;;;19.93;82.10
72640;BME280;60683;51.730;8.762;2023-09-18T01:39:53;99534.28;;;19.91;82.05
72640;BME280;60683;51.730;8.762;2023-09-18T01:42:24;99524.97;;;19.92;82.04
72640;BME280;60683;51.730;8.762;2023-09-18T01:44:52;99522.38;;;19.87;82.44
72640;BME280;60683;51.730;8.762;2023-09-18T01:47:21;99522.06;;;19.89;82.97
72640;BME280;60683;51.730;8.762;2023-09-18T01:49:48;99521.13;;;19.93;82.89
72640;BME280;60683;51.730;8.762;2023-09-18T01:52:16;99513.56;;;19.90;83.08
72640;BME280;60683;51.730;8.762;2023-09-18T01:54:43;99507.63;;;19.88;83.08
72640;BME280;60683;51.730;8.762;2023-09-18T01:57:12;99516.53;;;19.80;83.47
72640;BME280;60683;51.730;8.762;2023-09-18T01:59:39;99517.59;;;19.70;83.98
72640;BME280;60683;51.730;8.762;2023-09-18T02:02:08;99512.16;;;19.70;83.63
72640;BME280;60683;51.730;8.762;2023-09-18T02:04:35;99523.19;;;19.65;84.07
72640;BME280;60683;51.730;8.762;2023-09-18T02:07:03;99523.69;;;19.67;83.88
72640;BME280;60683;51.730;8.762;2023-09-18T02:09:29;99517.84;;;19.60;84.16
72640;BME280;60683;51.730;8.762;2023-09-18T02:11:57;99519.03;;;19.68;83.90
72640;BME280;60683;51.730;8.762;2023-09-18T02:14:25;99509.03;;;19.63;84.16
72640;BME280;60683;51.730;8.762;2023-09-18T02:16:52;99521.88;;;19.63;84.08
72640;BME280;60683;51.730;8.762;2023-09-18T02:19:19;99524.09;;;19.61;84.24
72640;BME280;60683;51.730;8.762;2023-09-18T02:21:46;99515.22;;;19.55;84.52
72640;BME280;60683;51.730;8.762;2023-09-18T02:24:13;99511.78;;;19.49;84.62
72640;BME280;60683;51.730;8.762;2023-09-18T02:26:40;99512.81;;;19.40;85.15
72640;BME280;60683;51.730;8.762;2023-09-18T02:29:08;99512.59;;;19.50;83.90
72640;BME280;60683;51.730;8.762;2023-09-18T02:31:38;99514.81;;;19.48;83.94
72640;BME280;60683;51.730;8.762;2023-09-18T02:34:06;99508.47;;;19.53;83.62
72640;BME280;60683;51.730;8.762;2023-09-18T02:36:35;99495.59;;;19.67;82.28
72640;BME280;60683;51.730;8.762;2023-09-18T02:39:01;99490.34;;;19.70;82.00
72640;BME280;60683;51.730;8.762;2023-09-18T02:41:29;99485.19;;;19.69;82.49
72640;BME280;60683;51.730;8.762;2023-09-18T02:43:56;99478.63;;;19.70;82.79
72640;BME280;60683;51.730;8.762;2023-09-18T02:46:23;99473.03;;;19.53;83.72
72640;BME280;60683;51.730;8.762;2023-09-18T02:48:51;99467.41;;;19.35;85.35
72640;BME280;60683;51.730;8.762;2023-09-18T02:51:18;99471.22;;;19.34;84.65
72640;BME280;60683;51.730;8.762;2023-09-18T02:53:45;99457.78;;;19.38;84.42
72640;BME280;60683;51.730;8.762;2023-09-18T02:56:12;99452.53;;;19.41;84.10
72640;BME280;60683;51.730;8.762;2023-09-18T02:58:39;99447.16;;;19.50;83.44
72640;BME280;60683;51.730;8.762;2023-09-18T03:01:07;99433.75;;;19.54;83.67
72640;BME280;60683;51.730;8.762;2023-09-18T03:03:34;99431.41;;;19.61;82.85
72640;BME280;60683;51.730;8.762;2023-09-18T03:06:04;99414.41;;;19.64;82.69
72640;BME280;60683;51.730;8.762;2023-09-18T03:08:32;99409.16;;;19.67;82.47
72640;BME280;60683;51.730;8.762;2023-09-18T03:10:59;99402.28;;;19.70;82.19
72640;BME280;60683;51.730;8.762;2023-09-18T03:13:27;99400.22;;;19.75;81.72
72640;BME280;60683;51.730;8.762;2023-09-18T03:15:54;99389.84;;;19.86;81.12
72640;BME280;60683;51.730;8.762;2023-09-18T03:18:22;99390.38;;;19.97;80.29
72640;BME280;60683;51.730;8.762;2023-09-18T03:20:49;99383.84;;;20.06;79.86
72640;BME280;60683;51.730;8.762;2023-09-18T03:23:17;99375.88;;;20.19;79.02
72640;BME280;60683;51.730;8.762;2023-09-18T03:25:44;99374.75;;;20.20;78.93
72640;BME280;60683;51.730;8.762;2023-09-18T03:28:11;99363.84;;;20.28;78.51
72640;BME280;60683;51.730;8.762;2023-09-18T03:30:38;99360.81;;;20.30;78.24
72640;BME280;60683;51.730;8.762;2023-09-18T03:33:05;99351.97;;;20.33;77.91
72640;BME280;60683;51.730;8.762;2023-09-18T03:35:32;99349.75;;;20.35;77.92
72640;BME280;60683;51.730;8.762;2023-09-18T03:38:11;99344.28;;;20.35;78.14
72640;BME280;60683;51.730;8.762;2023-09-18T03:40:39;99338.47;;;20.28;78.38
72640;BME280;60683;51.730;8.762;2023-09-18T03:43:06;99339.63;;;20.27;78.35
72640;BME280;60683;51.730;8.762;2023-09-18T03:45:34;99334.19;;;20.27;78.41
72640;BME280;60683;51.730;8.762;2023-09-18T03:48:01;99328.53;;;20.32;77.76
72640;BME280;60683;51.730;8.762;2023-09-18T03:50:28;99309.81;;;20.39;77.48
72640;BME280;60683;51.730;8.762;2023-09-18T03:52:55;99312.22;;;20.40;77.27
72640;BME280;60683;51.730;8.762;2023-09-18T03:55:22;99311.59;;;20.43;77.29
72640;BME280;60683;51.730;8.762;2023-09-18T03:57:51;99344.03;;;20.45;77.16
72640;BME280;60683;51.730;8.762;2023-09-18T04:00:19;99354.47;;;20.52;76.58
72640;BME280;60683;51.730;8.762;2023-09-18T04:02:46;99342.13;;;20.54;76.60
72640;BME280;60683;51.730;8.762;2023-09-18T04:05:13;99332.50;;;20.57;76.36
72640;BME280;60683;51.730;8.762;2023-09-18T04:07:40;99342.94;;;20.63;75.97
72640;BME280;60683;51.730;8.762;2023-09-18T04:10:12;99332.34;;;20.62;75.95
72640;BME280;60683;51.730;8.762;2023-09-18T04:12:44;99327.19;;;20.60;75.73
72640;BME280;60683;51.730;8.762;2023-09-18T04:15:15;99325.28;;;20.61;75.92
72640;BME280;60683;51.730;8.762;2023-09-18T04:17:43;99319.50;;;20.62;75.94
72640;BME280;60683;51.730;8.762;2023-09-18T04:20:11;99328.81;;;20.61;75.74
72640;BME280;60683;51.730;8.762;2023-09-18T04:22:42;99311.78;;;20.64;75.84
72640;BME280;60683;51.730;8.762;2023-09-18T04:25:10;99312.09;;;20.63;75.77
72640;BME280;60683;51.730;8.762;2023-09-18T04:27:37;99306.97;;;20.61;75.85
72640;BME280;60683;51.730;8.762;2023-09-18T04:30:05;99322.53;;;20.61;75.46
72640;BME280;60683;51.730;8.762;2023-09-18T04:32:36;99306.97;;;20.61;75.83
72640;BME280;60683;51.730;8.762;2023-09-18T04:35:05;99291.69;;;20.60;76.05
72640;BME280;60683;51.730;8.762;2023-09-18T04:37:36;99290.09;;;20.59;75.94
72640;BME280;60683;51.730;8.762;2023-09-18T04:40:05;99297.47;;;20.59;75.92
72640;BME280;60683;51.730;8.762;2023-09-18T04:42:35;99290.25;;;20.63;75.70
72640;BME280;60683;51.730;8.762;2023-09-18T04:45:03;99292.84;;;20.68;75.36
72640;BME280;60683;51.730;8.762;2023-09-18T04:47:30;99270.81;;;20.73;74.93
72640;BME280;60683;51.730;8.762;2023-09-18T04:49:59;99267.63;;;20.71;75.14
72640;BME280;60683;51.730;8.762;2023-09-18T04:52:26;99270.81;;;20.73;75.06
72640;BME280;60683;51.730;8.762;2023-09-18T04:54:52;99268.91;;;20.73;75.10
72640;BME280;60683;51.730;8.762;2023-09-18T04:57:19;99256.03;;;20.74;74.70
72640;BME280;60683;51.730;8.762;2023-09-18T04:59:48;99243.84;;;20.71;75.02
72640;BME280;60683;51.730;8.762;2023-09-18T05:02:14;99256.38;;;20.72;75.07
72640;BME280;60683;51.730;8.762;2023-09-18T05:04:42;99272.09;;;20.67;75.50
72640;BME280;60683;51.730;8.762;2023-09-18T05:07:10;99266.81;;;20.70;75.18
72640;BME280;60683;51.730;8.762;2023-09-18T05:09:37;99261.66;;;20.69;75.22
72640;BME280;60683;51.730;8.762;2023-09-18T05:12:06;99265.03;;;20.66;75.37
72640;BME280;60683;51.730;8.762;2023-09-18T05:14:39;99250.09;;;20.63;75.40
72640;BME280;60683;51.730;8.762;2023-09-18T05:17:06;99248.66;;;20.66;75.06
72640;BME280;60683;51.730;8.762;2023-09-18T05:19:35;99254.44;;;20.73;74.26
72640;BME280;60683;51.730;8.762;2023-09-18T05:22:02;99256.38;;;20.72;74.43
72640;BME280;60683;51.730;8.762;2023-09-18T05:24:31;99248.00;;;20.69;74.73
72640;BME280;60683;51.730;8.762;2023-09-18T05:26:58;99236.75;;;20.70;74.77
72640;BME280;60683;51.730;8.762;2023-09-18T05:29:25;99250.41;;;20.70;74.84
72640;BME280;60683;51.730;8.762;2023-09-18T05:31:52;99242.56;;;20.69;75.09
72640;BME280;60683;51.730;8.762;2023-09-18T05:34:19;99237.72;;;20.66;75.00
72640;BME280;60683;51.730;8.762;2023-09-18T05:36:46;99241.75;;;20.68;75.33
72640;BME280;60683;51.730;8.762;2023-09-18T05:39:14;99230.34;;;20.66;75.41
72640;BME280;60683;51.730;8.762;2023-09-18T05:41:43;99218.44;;;20.62;75.58
72640;BME280;60683;51.730;8.762;2023-09-18T05:44:11;99217.81;;;20.57;75.70
72640;BME280;60683;51.730;8.762;2023-09-18T05:46:37;99213.31;;;20.61;75.66
72640;BME280;60683;51.730;8.762;2023-09-18T05:49:04;99210.91;;;20.59;75.97
72640;BME280;60683;51.730;8.762;2023-09-18T05:51:31;99214.91;;;20.62;75.89
72640;BME280;60683;51.730;8.762;2023-09-18T05:53:59;99208.16;;;20.59;75.79
72640;BME280;60683;51.730;8.762;2023-09-18T05:56:26;99212.34;;;20.65;75.39
72640;BME280;60683;51.730;8.762;2023-09-18T05:58:54;99216.69;;;20.66;75.62
72640;BME280;60683;51.730;8.762;2023-09-18T06:01:21;99212.50;;;20.69;75.11
72640;BME280;60683;51.730;8.762;2023-09-18T06:03:48;99207.53;;;20.71;75.18
72640;BME280;60683;51.730;8.762;2023-09-18T06:06:15;99209.13;;;20.72;74.91
72640;BME280;60683;51.730;8.762;2023-09-18T06:08:42;99217.81;;;20.74;75.35
72640;BME280;60683;51.730;8.762;2023-09-18T06:11:09;99212.81;;;20.67;75.42
72640;BME280;60683;51.730;8.762;2023-09-18T06:13:36;99205.13;;;20.69;75.49
72640;BME280;60683;51.730;8.762;2023-09-18T06:16:05;99203.66;;;20.72;75.24
72640;BME280;60683;51.730;8.762;2023-09-18T06:18:33;99226.47;;;20.67;75.56
72640;BME280;60683;51.730;8.762;2023-09-18T06:21:03;99233.72;;;20.72;75.22
72640;BME280;60683;51.730;8.762;2023-09-18T06:23:31;99247.53;;;20.75;75.13
72640;BME280;60683;51.730;8.762;2023-09-18T06:25:59;99240.78;;;20.73;75.09
72640;BME280;60683;51.730;8.762;2023-09-18T06:28:26;99237.25;;;20.72;75.58
72640;BME280;60683;51.730;8.762;2023-09-18T06:30:53;99235.66;;;20.71;75.56
72640;BME280;60683;51.730;8.762;2023-09-18T06:33:22;99253.16;;;20.70;75.25
72640;BME280;60683;51.730;8.762;2023-09-18T06:35:49;99261.81;;;20.72;75.41
72640;BME280;60683;51.730;8.762;2023-09-18T06:38:17;99261.19;;;20.75;75.30
72640;BME280;60683;51.730;8.762;2023-09-18T06:40:46;99278.06;;;20.77;75.42
72640;BME280;60683;51.730;8.762;2023-09-18T06:43:14;99266.13;;;20.91;74.67
72640;BME280;60683;51.730;8.762;2023-09-18T06:45:40;99257.13;;;20.99;73.91
72640;BME280;60683;51.730;8.762;2023-09-18T06:48:08;99258.09;;;21.11;73.48
72640;BME280;60683;51.730;8.762;2023-09-18T06:50:36;99255.97;;;21.17;73.42
72640;BME280;60683;51.730;8.762;2023-09-18T06:53:04;99261.47;;;21.26;72.79
72640;BME280;60683;51.730;8.762;2023-09-18T06:55:31;99272.66;;;21.41;72.53
72640;BME280;60683;51.730;8.762;2023-09-18T06:57:58;99267.97;;;21.51;71.98
72640;BME280;60683;51.730;8.762;2023-09-18T07:00:25;99264.84;;;21.69;71.44
72640;BME280;60683;51.730;8.762;2023-09-18T07:02:52;99266.22;;;21.84;70.87
72640;BME280;60683;51.730;8.762;2023-09-18T07:05:19;99264.72;;;21.95;70.36
72640;BME280;60683;51.730;8.762;2023-09-18T07:07:48;99277.75;;;21.98;69.57
72640;BME280;60683;51.730;8.762;2023-09-18T07:10:14;99273.88;;;21.99;70.10
72640;BME280;60683;51.730;8.762;2023-09-18T07:12:41;99266.00;;;21.98;69.72
72640;BME280;60683;51.730;8.762;2023-09-18T07:15:09;99262.94;;;21.99;70.04
72640;BME280;60683;51.730;8.762;2023-09-18T07:17:36;99270.06;;;21.92;70.42
72640;BME280;60683;51.730;8.762;2023-09-18T07:20:03;99274.09;;;21.86;70.61
72640;BME280;60683;51.730;8.762;2023-09-18T07:22:35;99286.00;;;21.90;70.50
72640;BME280;60683;51.730;8.762;2023-09-18T07:25:05;99287.25;;;22.01;70.29
72640;BME280;60683;51.730;8.762;2023-09-18T07:27:33;99295.28;;;22.06;70.48
72640;BME280;60683;51.730;8.762;2023-09-18T07:30:02;99287.03;;;22.15;69.28
72640;BME280;60683;51.730;8.762;2023-09-18T07:32:30;99292.66;;;22.18;68.76
72640;BME280;60683;51.730;8.762;2023-09-18T07:34:57;99303.91;;;22.25;68.12
72640;BME280;60683;51.730;8.762;2023-09-18T07:37:25;99309.00;;;22.35;67.27
72640;BME280;60683;51.730;8.762;2023-09-18T07:39:53;99313.72;;;22.47;67.03
72640;BME280;60683;51.730;8.762;2023-09-18T07:42:23;99319.34;;;22.51;66.53
72640;BME280;60683;51.730;8.762;2023-09-18T07:44:50;99321.28;;;22.50;66.76
72640;BME280;60683;51.730;8.762;2023-09-18T07:47:17;99319.97;;;22.56;66.83
72640;BME280;60683;51.730;8.762;2023-09-18T07:49:44;99311.00;;;22.47;66.48
72640;BME280;60683;51.730;8.762;2023-09-18T07:52:11;99323.75;;;22.43;66.22
72640;BME280;60683;51.730;8.762;2023-09-18T07:54:38;99316.19;;;22.40;66.51
72640;BME280;60683;51.730;8.762;2023-09-18T07:57:05;99309.09;;;22.39;65.12
72640;BME280;60683;51.730;8.762;2023-09-18T07:59:36;99323.41;;;22.44;64.55
72640;BME280;60683;51.730;8.762;2023-09-18T08:02:04;99328.09;;;22.44;63.93
72640;BME280;60683;51.730;8.762;2023-09-18T08:04:32;99322.13;;;22.42;63.56
72640;BME280;60683;51.730;8.762;2023-09-18T08:06:59;99327.44;;;22.47;63.50
72640;BME280;60683;51.730;8.762;2023-09-18T08:09:26;99330.91;;;22.35;63.45
72640;BME280;60683;51.730;8.762;2023-09-18T08:11:55;99334.41;;;22.36;63.64
72640;BME280;60683;51.730;8.762;2023-09-18T08:14:22;99336.00;;;22.37;63.62
72640;BME280;60683;51.730;8.762;2023-09-18T08:16:57;99332.47;;;22.36;64.13
72640;BME280;60683;51.730;8.762;2023-09-18T08:19:25;99334.16;;;22.29;63.73
72640;BME280;60683;51.730;8.762;2023-09-18T08:21:53;99347.69;;;22.25;64.71
72640;BME280;60683;51.730;8.762;2023-09-18T08:24:21;99340.75;;;22.28;64.29
72640;BME280;60683;51.730;8.762;2023-09-18T08:26:49;99341.91;;;22.27;64.34
72640;BME280;60683;51.730;8.762;2023-09-18T08:29:16;99347.50;;;22.30;64.66
72640;BME280;60683;51.730;8.762;2023-09-18T08:31:43;99336.81;;;22.37;64.13
72640;BME280;60683;51.730;8.762;2023-09-18T08:34:11;99334.31;;;22.32;63.87
72640;BME280;60683;51.730;8.762;2023-09-18T08:36:38;99329.00;;;22.27;64.62
72640;BME280;60683;51.730;8.762;2023-09-18T08:39:05;99341.41;;;22.25;64.05
72640;BME280;60683;51.730;8.762;2023-09-18T08:41:33;99354.63;;;22.23;65.07
72640;BME280;60683;51.730;8.762;2023-09-18T08:44:03;99360.78;;;22.20;65.00
72640;BME280;60683;51.730;8.762;2023-09-18T08:46:30;99359.31;;;22.22;65.11
72640;BME280;60683;51.730;8.762;2023-09-18T08:49:00;99356.06;;;22.29;64.49
72640;BME280;60683;51.730;8.762;2023-09-18T08:51:29;99357.38;;;22.23;64.86
72640;BME280;60683;51.730;8.762;2023-09-18T08:53:56;99367.19;;;22.24;65.08
72640;BME280;60683;51.730;8.762;2023-09-18T08:56:24;99361.22;;;22.30;65.14
72640;BME280;60683;51.730;8.762;2023-09-18T08:58:51;99355.06;;;22.33;64.56
72640;BME280;60683;51.730;8.762;2023-09-18T09:01:20;99365.88;;;22.30;64.82
72640;BME280;60683;51.730;8.762;2023-09-18T09:03:48;99362.28;;;22.38;64.87
72640;BME280;60683;51.730;8.762;2023-09-18T09:06:16;99362.59;;;22.36;64.74
72640;BME280;60683;51.730;8.762;2023-09-18T09:08:44;99371.50;;;22.33;65.21
72640;BME280;60683;51.730;8.762;2023-09-18T09:11:11;99365.59;;;22.23;64.86
72640;BME280;60683;51.730;8.762;2023-09-18T09:13:38;99360.25;;;22.26;64.73
72640;BME280;60683;51.730;8.762;2023-09-18T09:16:11;99371.16;;;22.35;65.39
72640;BME280;60683;51.730;8.762;2023-09-18T09:18:47;99377.53;;;22.48;64.72
72640;BME280;60683;51.730;8.762;2023-09-18T09:21:15;99353.50;;;22.53;63.46
72640;BME280;60683;51.730;8.762;2023-09-18T09:23:46;99341.53;;;22.58;63.96
72640;BME280;60683;51.730;8.762;2023-09-18T09:26:17;99358.41;;;22.68;63.89
72640;BME280;60683;51.730;8.762;2023-09-18T09:28:45;99354.38;;;22.66;63.43
72640;BME280;60683;51.730;8.762;2023-09-18T09:31:22;99344.16;;;22.75;63.09
72640;BME280;60683;51.730;8.762;2023-09-18T09:33:51;99340.66;;;22.45;63.31
72640;BME280;60683;51.730;8.762;2023-09-18T09:36:19;99349.44;;;22.30;63.86
72640;BME280;60683;51.730;8.762;2023-09-18T09:38:48;99349.16;;;22.52;63.56
72640;BME280;60683;51.730;8.762;2023-09-18T09:41:15;99352.63;;;22.61;63.51
72640;BME280;60683;51.730;8.762;2023-09-18T09:43:43;99352.50;;;22.58;64.04
72640;BME280;60683;51.730;8.762;2023-09-18T09:46:15;99356.78;;;22.67;63.10
72640;BME280;60683;51.730;8.762;2023-09-18T09:48:58;99362.84;;;22.23;64.57
72640;BME280;60683;51.730;8.762;2023-09-18T09:51:27;99366.81;;;22.34;64.14
72640;BME280;60683;51.730;8.762;2023-09-18T09:53:56;99349.34;;;22.18;64.59
72640;BME280;60683;51.730;8.762;2023-09-18T09:59:06;99353.84;;;22.22;64.62
72640;BME280;60683;51.730;8.762;2023-09-18T10:01:34;99353.41;;;22.11;64.75
72640;BME280;60683;51.730;8.762;2023-09-18T10:04:03;99368.03;;;22.16;65.40
72640;BME280;60683;51.730;8.762;2023-09-18T10:06:34;99365.06;;;22.29;65.13
72640;BME280;60683;51.730;8.762;2023-09-18T10:09:03;99359.59;;;22.29;64.68
72640;BME280;60683;51.730;8.762;2023-09-18T10:11:31;99350.97;;;22.39;64.36
72640;BME280;60683;51.730;8.762;2023-09-18T10:14:06;99362.19;;;22.55;64.26
72640;BME280;60683;51.730;8.762;2023-09-18T10:16:36;99353.09;;;22.63;63.47
72640;BME280;60683;51.730;8.762;2023-09-18T10:19:09;99364.34;;;22.70;63.92
72640;BME280;60683;51.730;8.762;2023-09-18T10:21:47;99358.34;;;22.77;63.55
72640;BME280;60683;51.730;8.762;2023-09-18T10:24:20;99373.88;;;22.94;63.26
72640;BME280;60683;51.730;8.762;2023-09-18T10:26:51;99381.56;;;22.80;62.84
72640;BME280;60683;51.730;8.762;2023-09-18T10:29:22;99387.44;;;22.61;63.50
72640;BME280;60683;51.730;8.762;2023-09-18T10:31:51;99384.13;;;22.76;63.75
72640;BME280;60683;51.730;8.762;2023-09-18T10:34:18;99380.00;;;22.91;63.59
72640;BME280;60683;51.730;8.762;2023-09-18T10:36:46;99391.59;;;22.96;62.54
72640;BME280;60683;51.730;8.762;2023-09-18T10:39:14;99383.88;;;22.90;62.17
72640;BME280;60683;51.730;8.762;2023-09-18T10:41:50;99384.84;;;22.94;62.01
72640;BME280;60683;51.730;8.762;2023-09-18T10:44:18;99391.44;;;22.93;62.45
72640;BME280;60683;51.730;8.762;2023-09-18T10:46:45;99396.81;;;23.10;61.80
72640;BME280;60683;51.730;8.762;2023-09-18T10:49:12;99403.16;;;23.02;61.42
72640;BME280;60683;51.730;8.762;2023-09-18T10:51:40;99395.94;;;22.97;61.65
72640;BME280;60683;51.730;8.762;2023-09-18T10:54:07;99396.00;;;23.09;61.85
72640;BME280;60683;51.730;8.762;2023-09-18T10:56:35;99375.81;;;23.14;61.35
72640;BME280;60683;51.730;8.762;2023-09-18T10:59:06;99361.56;;;23.00;61.24
72640;BME280;60683;51.730;8.762;2023-09-18T11:01:34;99353.28;;;22.88;61.23
72640;BME280;60683;51.730;8.762;2023-09-18T11:04:04;99362.75;;;22.90;61.76
72640;BME280;60683;51.730;8.762;2023-09-18T11:07:03;99374.28;;;22.84;62.41
72640;BME280;60683;51.730;8.762;2023-09-18T11:09:32;99393.25;;;22.89;62.16
72640;BME280;60683;51.730;8.762;2023-09-18T11:12:08;99385.38;;;22.87;61.50
72640;BME280;60683;51.730;8.762;2023-09-18T11:14:45;99397.50;;;22.77;61.76
72640;BME280;60683;51.730;8.762;2023-09-18T11:17:32;99400.34;;;22.90;61.68
72640;BME280;60683;51.730;8.762;2023-09-18T11:20:07;99398.63;;;22.76;61.77
72640;BME280;60683;51.730;8.762;2023-09-18T11:22:38;99394.38;;;22.88;61.60
72640;BME280;60683;51.730;8.762;2023-09-18T11:25:34;99391.72;;;23.00;60.75
72640;BME280;60683;51.730;8.762;2023-09-18T11:28:03;99397.06;;;22.96;60.95
72640;BME280;60683;51.730;8.762;2023-09-18T11:30:34;99412.41;;;23.18;60.04
72640;BME280;60683;51.730;8.762;2023-09-18T11:33:03;99415.47;;;23.17;59.85
72640;BME280;60683;51.730;8.762;2023-09-18T11:35:31;99399.41;;;23.27;59.07
72640;BME280;60683;51.730;8.762;2023-09-18T11:38:06;99413.63;;;23.41;59.29
72640;BME280;60683;51.730;8.762;2023-09-18T11:40:35;99404.38;;;23.34;58.42
72640;BME280;60683;51.730;8.762;2023-09-18T11:43:19;99405.44;;;23.21;59.03
72640;BME280;60683;51.730;8.762;2023-09-18T11:45:51;99400.56;;;23.26;58.41
72640;BME280;60683;51.730;8.762;2023-09-18T11:48:19;99407.25;;;23.37;58.74
72640;BME280;60683;51.730;8.762;2023-09-18T11:50:47;99395.63;;;23.53;58.14
72640;BME280;60683;51.730;8.762;2023-09-18T11:53:17;99392.25;;;23.56;57.46
72640;BME280;60683;51.730;8.762;2023-09-18T11:55:45;99395.38;;;23.45;57.60
72640;BME280;60683;51.730;8.762;2023-09-18T11:58:13;99390.19;;;23.32;58.16
72640;BME280;60683;51.730;8.762;2023-09-18T12:00:41;99396.22;;;23.25;59.01
72640;BME280;60683;51.730;8.762;2023-09-18T12:03:16;99394.34;;;23.38;58.41
72640;BME280;60683;51.730;8.762;2023-09-18T12:05:55;99396.47;;;23.32;58.16
72640;BME280;60683;51.730;8.762;2023-09-18T12:08:23;99407.09;;;23.13;58.65
72640;BME280;60683;51.730;8.762;2023-09-18T12:10:52;99408.25;;;23.12;59.47
72640;BME280;60683;51.730;8.762;2023-09-18T12:15:47;99401.69;;;23.04;59.95
72640;BME280;60683;51.730;8.762;2023-09-18T12:18:16;99401.56;;;23.22;59.35
72640;BME280;60683;51.730;8.762;2023-09-18T12:20:47;99397.16;;;23.29;59.20
72640;BME280;60683;51.730;8.762;2023-09-18T12:23:15;99395.34;;;23.33;58.93
72640;BME280;60683;51.730;8.762;2023-09-18T12:25:44;99389.84;;;23.13;59.32
72640;BME280;60683;51.730;8.762;2023-09-18T12:28:13;99396.81;;;23.31;58.93
72640;BME280;60683;51.730;8.762;2023-09-18T12:30:41;99391.78;;;23.33;58.97
72640;BME280;60683;51.730;8.762;2023-09-18T12:33:08;99393.00;;;23.23;58.99
72640;BME280;60683;51.730;8.762;2023-09-18T12:35:37;99388.06;;;23.17;58.87
72640;BME280;60683;51.730;8.762;2023-09-18T12:38:14;99374.34;;;23.37;58.33
72640;BME280;60683;51.730;8.762;2023-09-18T12:40:41;99369.06;;;23.32;58.93
72640;BME280;60683;51.730;8.762;2023-09-18T12:43:10;99361.09;;;23.39;57.81
72640;BME280;60683;51.730;8.762;2023-09-18T12:45:38;99370.28;;;23.56;57.85
72640;BME280;60683;51.730;8.762;2023-09-18T12:48:06;99348.94;;;23.61;56.87
72640;BME280;60683;51.730;8.762;2023-09-18T12:50:33;99361.50;;;23.62;57.17
72640;BME280;60683;51.730;8.762;2023-09-18T12:53:09;99361.81;;;23.94;57.21
72640;BME280;60683;51.730;8.762;2023-09-18T12:55:36;99361.59;;;24.11;56.00
72640;BME280;60683;51.730;8.762;2023-09-18T12:58:03;99351.41;;;23.99;56.13
72640;BME280;60683;51.730;8.762;2023-09-18T13:00:33;99360.44;;;24.00;56.74
72640;BME280;60683;51.730;8.762;2023-09-18T13:03:01;99359.22;;;24.58;54.29
72640;BME280;60683;51.730;8.762;2023-09-18T13:05:30;99359.72;;;25.40;52.46
72640;BME280;60683;51.730;8.762;2023-09-18T13:08:03;99360.97;;;25.43;51.53
72640;BME280;60683;51.730;8.762;2023-09-18T13:10:43;99346.41;;;25.58;51.77
72640;BME280;60683;51.730;8.762;2023-09-18T13:13:16;99343.38;;;25.48;51.21